createdAt,value
2023-03-16T00:02:07.091Z,94505.00
2023-03-16T00:04:37.935Z,94517.13
2023-03-16T00:07:09.557Z,94519.47
2023-03-16T00:09:40.845Z,94514.19
2023-03-16T00:12:15.761Z,94512.91
2023-03-16T00:14:44.545Z,94515.44
2023-03-16T00:17:20.570Z,94513.50
2023-03-16T00:19:55.913Z,94520.72
2023-03-16T00:22:28.434Z,94516.75
2023-03-16T00:24:56.533Z,94506.16
2023-03-16T00:27:27.504Z,94527.31
2023-03-16T00:30:00.030Z,94514.69
2023-03-16T00:32:35.701Z,94520.56
2023-03-16T00:35:04.431Z,94521.63
2023-03-16T00:37:32.997Z,94531.28
2023-03-16T00:40:00.856Z,94530.25
2023-03-16T00:42:30.387Z,94532.69
2023-03-16T00:44:59.894Z,94530.34
2023-03-16T00:47:30.549Z,94514.28
2023-03-16T00:49:58.247Z,94520.34
2023-03-16T00:52:27.363Z,94532.19
2023-03-16T00:54:55.354Z,94520.50
2023-03-16T00:57:25.312Z,94536.75
2023-03-16T00:59:52.692Z,94526.81
2023-03-16T01:02:23.471Z,94533.69
2023-03-16T01:04:51.911Z,94531.34
2023-03-16T01:07:19.277Z,94530.31
2023-03-16T01:09:47.887Z,94520.03
2023-03-16T01:12:17.292Z,94526.63
2023-03-16T01:14:47.991Z,94514.47
2023-03-16T01:17:17.293Z,94518.78
2023-03-16T01:19:44.649Z,94501.91
2023-03-16T01:22:12.213Z,94520.31
2023-03-16T01:24:40.616Z,94522.47
2023-03-16T01:27:08.826Z,94514.06
2023-03-16T01:29:37.438Z,94521.97
2023-03-16T01:32:04.551Z,94512.47
2023-03-16T01:34:32.867Z,94518.28
2023-03-16T01:37:01.010Z,94516.22
2023-03-16T01:39:50.562Z,94512.50
2023-03-16T01:42:17.658Z,94515.41
2023-03-16T01:45:05.670Z,94524.16
2023-03-16T01:47:38.898Z,94509.66
2023-03-16T01:50:10.249Z,94501.50
2023-03-16T01:52:39.990Z,94500.50
2023-03-16T01:55:09.555Z,94499.97
2023-03-16T01:57:42.688Z,94493.97
2023-03-16T02:00:22.053Z,94492.72
2023-03-16T02:03:07.983Z,94490.84
2023-03-16T02:05:53.389Z,94487.91
2023-03-16T02:08:23.067Z,94489.31
2023-03-16T02:10:50.721Z,94488.53
2023-03-16T02:13:17.547Z,94481.41
2023-03-16T02:15:44.631Z,94486.97
2023-03-16T02:18:11.337Z,94484.81
2023-03-16T02:20:56.922Z,94501.47
2023-03-16T02:23:25.405Z,94496.38
2023-03-16T02:26:11.127Z,94504.19
2023-03-16T02:29:10.077Z,94495.22
2023-03-16T02:31:37.910Z,94487.00
2023-03-16T02:34:07.410Z,94501.53
2023-03-16T02:36:36.432Z,94499.16
2023-03-16T02:39:05.826Z,94493.88
2023-03-16T02:41:41.903Z,94501.50
2023-03-16T02:44:16.064Z,94492.25
2023-03-16T02:46:45.335Z,94487.03
2023-03-16T02:49:30.038Z,94487.19
2023-03-16T02:51:57.617Z,94491.31
2023-03-16T02:54:24.743Z,94474.97
2023-03-16T02:56:52.412Z,94486.59
2023-03-16T02:59:20.194Z,94482.09
2023-03-16T03:01:46.898Z,94484.34
2023-03-16T03:04:13.792Z,94479.41
2023-03-16T03:06:41.783Z,94474.09
2023-03-16T03:09:11.394Z,94469.00
2023-03-16T03:11:40.244Z,94472.88
2023-03-16T03:14:07.531Z,94471.75
2023-03-16T03:16:36.552Z,94469.16
2023-03-16T03:19:03.422Z,94469.19
2023-03-16T03:21:35.064Z,94459.22
2023-03-16T03:24:02.810Z,94471.94
2023-03-16T03:26:30.125Z,94462.94
2023-03-16T03:28:59.565Z,94459.47
2023-03-16T03:31:26.465Z,94460.81
2023-03-16T03:33:54.138Z,94453.13
2023-03-16T03:36:22.339Z,94452.56
2023-03-16T03:38:54.794Z,94456.22
2023-03-16T03:41:22.568Z,94460.38
2023-03-16T03:43:50.957Z,94463.34
2023-03-16T03:46:18.966Z,94463.34
2023-03-16T03:48:46.102Z,94459.63
2023-03-16T03:51:12.973Z,94455.22
2023-03-16T03:53:48.626Z,94450.72
2023-03-16T03:56:20.693Z,94462.91
2023-03-16T03:58:47.939Z,94462.38
2023-03-16T04:01:23.914Z,94461.25
2023-03-16T04:03:50.815Z,94453.53
2023-03-16T04:06:18.142Z,94437.63
2023-03-16T04:08:45.007Z,94441.25
2023-03-16T04:11:15.244Z,94442.09
2023-03-16T04:13:41.968Z,94439.22
2023-03-16T04:16:10.217Z,94445.53
2023-03-16T04:18:42.697Z,94442.59
2023-03-16T04:21:15.950Z,94442.28
2023-03-16T04:23:43.564Z,94435.88
2023-03-16T04:26:10.724Z,94437.06
2023-03-16T04:28:37.694Z,94436.44
2023-03-16T04:31:09.389Z,94449.06
2023-03-16T04:33:42.358Z,94435.59
2023-03-16T04:36:09.284Z,94444.50
2023-03-16T04:38:37.725Z,94443.91
2023-03-16T04:41:06.677Z,94434.66
2023-03-16T04:43:37.573Z,94434.38
2023-03-16T04:46:13.867Z,94433.25
2023-03-16T04:48:40.969Z,94425.53
2023-03-16T04:51:08.927Z,94416.78
2023-03-16T04:53:39.342Z,94430.06
2023-03-16T04:56:19.506Z,94434.56
2023-03-16T04:58:51.677Z,94427.50
2023-03-16T05:01:20.589Z,94425.09
2023-03-16T05:03:50.462Z,94427.50
2023-03-16T05:06:17.870Z,94437.34
2023-03-16T05:08:45.528Z,94423.06
2023-03-16T05:11:12.189Z,94432.41
2023-03-16T05:13:47.810Z,94415.03
2023-03-16T05:16:15.469Z,94416.41
2023-03-16T05:18:42.381Z,94414.13
2023-03-16T05:21:09.683Z,94418.59
2023-03-16T05:23:53.775Z,94413.13
2023-03-16T05:26:20.772Z,94418.09
2023-03-16T05:28:47.560Z,94421.78
2023-03-16T05:31:16.943Z,94416.75
2023-03-16T05:33:48.797Z,94418.41
2023-03-16T05:36:18.822Z,94429.22
2023-03-16T05:38:48.696Z,94421.28
2023-03-16T05:41:41.933Z,94430.53
2023-03-16T05:44:33.554Z,94430.81
2023-03-16T05:47:11.268Z,94423.72
2023-03-16T05:49:43.291Z,94414.19
2023-03-16T05:52:19.935Z,94419.50
2023-03-16T05:54:46.698Z,94423.97
2023-03-16T05:57:13.617Z,94420.78
2023-03-16T05:59:43.907Z,94415.53
2023-03-16T06:02:11.874Z,94422.38
2023-03-16T06:04:38.626Z,94420.78
2023-03-16T06:07:05.545Z,94438.41
2023-03-16T06:09:33.610Z,94436.56
2023-03-16T06:12:04.150Z,94414.56
2023-03-16T06:14:31.980Z,94432.78
2023-03-16T06:16:59.405Z,94432.72
2023-03-16T06:19:26.260Z,94436.19
2023-03-16T06:21:58.471Z,94441.22
2023-03-16T06:24:25.422Z,94428.81
2023-03-16T06:26:52.191Z,94414.31
2023-03-16T06:29:20.308Z,94432.53
2023-03-16T06:31:47.254Z,94428.38
2023-03-16T06:34:14.840Z,94422.31
2023-03-16T06:36:41.509Z,94424.69
2023-03-16T06:39:12.264Z,94429.28
2023-03-16T06:41:48.824Z,94428.28
2023-03-16T06:44:17.028Z,94427.31
2023-03-16T06:46:53.917Z,94425.16
2023-03-16T06:49:21.124Z,94432.34
2023-03-16T06:51:48.035Z,94434.16
2023-03-16T06:54:15.146Z,94431.03
2023-03-16T06:56:41.867Z,94435.56
2023-03-16T06:59:08.903Z,94439.78
2023-03-16T07:01:37.319Z,94436.78
2023-03-16T07:04:04.183Z,94437.34
2023-03-16T07:06:32.696Z,94437.72
2023-03-16T07:09:01.384Z,94447.47
2023-03-16T07:11:29.444Z,94441.22
2023-03-16T07:13:58.694Z,94420.59
2023-03-16T07:16:26.809Z,94429.50
2023-03-16T07:18:54.424Z,94431.78
2023-03-16T07:21:21.783Z,94435.78
2023-03-16T07:23:48.709Z,94437.94
2023-03-16T07:26:20.972Z,94441.13
2023-03-16T07:28:52.993Z,94435.94
2023-03-16T07:31:19.997Z,94435.16
2023-03-16T07:33:47.354Z,94443.13
2023-03-16T07:36:20.656Z,94441.56
2023-03-16T07:38:53.834Z,94454.50
2023-03-16T07:41:21.621Z,94448.38
2023-03-16T07:43:48.783Z,94455.78
2023-03-16T07:46:15.600Z,94463.44
2023-03-16T07:48:44.215Z,94453.72
2023-03-16T07:51:13.890Z,94451.63
2023-03-16T07:53:42.370Z,94454.25
2023-03-16T07:56:19.341Z,94457.69
2023-03-16T07:58:51.518Z,94458.75
2023-03-16T08:01:18.280Z,94452.41
2023-03-16T08:03:45.046Z,94446.06
2023-03-16T08:06:12.189Z,94452.38
2023-03-16T08:08:39.112Z,94456.59
2023-03-16T08:11:06.555Z,94448.94
2023-03-16T08:13:54.541Z,94459.13
2023-03-16T08:16:22.831Z,94453.34
2023-03-16T08:18:52.129Z,94450.75
2023-03-16T08:21:20.180Z,94456.56
2023-03-16T08:23:50.411Z,94456.56
2023-03-16T08:26:20.421Z,94459.22
2023-03-16T08:28:52.101Z,94461.28
2023-03-16T08:31:21.368Z,94462.16
2023-03-16T08:33:57.404Z,94465.81
2023-03-16T08:36:28.466Z,94467.69
2023-03-16T08:39:06.709Z,94466.63
2023-03-16T08:41:38.073Z,94464.00
2023-03-16T08:44:10.790Z,94472.53
2023-03-16T08:46:37.683Z,94462.31
2023-03-16T08:49:04.393Z,94469.19
2023-03-16T08:51:32.620Z,94470.78
2023-03-16T08:53:59.743Z,94472.94
2023-03-16T08:56:26.424Z,94470.31
2023-03-16T08:58:53.122Z,94471.84
2023-03-16T09:01:20.364Z,94461.56
2023-03-16T09:03:47.273Z,94459.69
2023-03-16T09:06:16.169Z,94459.59
2023-03-16T09:08:45.521Z,94463.38
2023-03-16T09:11:15.025Z,94461.25
2023-03-16T09:13:42.940Z,94461.06
2023-03-16T09:16:12.175Z,94463.59
2023-03-16T09:18:39.984Z,94465.84
2023-03-16T09:21:08.876Z,94460.19
2023-03-16T09:23:37.625Z,94463.50
2023-03-16T09:26:07.629Z,94448.00
2023-03-16T09:28:36.092Z,94460.00
2023-03-16T09:31:03.419Z,94456.50
2023-03-16T09:33:32.149Z,94453.44
2023-03-16T09:35:58.871Z,94458.72
2023-03-16T09:38:29.468Z,94453.38
2023-03-16T09:41:10.840Z,94451.91
2023-03-16T09:43:49.729Z,94448.38
2023-03-16T09:46:36.183Z,94452.69
2023-03-16T09:49:03.884Z,94445.41
2023-03-16T09:51:54.664Z,94446.56
2023-03-16T09:54:39.303Z,94440.47
2023-03-16T09:57:23.699Z,94440.72
2023-03-16T09:59:50.477Z,94440.72
2023-03-16T10:02:19.996Z,94436.38
2023-03-16T10:04:57.678Z,94432.44
2023-03-16T10:07:50.545Z,94434.66
2023-03-16T10:10:21.483Z,94424.34
2023-03-16T10:12:52.631Z,94420.16
2023-03-16T10:15:23.086Z,94417.22
2023-03-16T10:18:13.015Z,94416.50
2023-03-16T10:20:42.078Z,94410.28
2023-03-16T10:23:22.925Z,94405.53
2023-03-16T10:25:52.360Z,94392.91
2023-03-16T10:28:26.224Z,94390.13
2023-03-16T10:30:55.807Z,94398.16
2023-03-16T10:33:36.742Z,94387.03
2023-03-16T10:36:23.254Z,94382.59
2023-03-16T10:39:11.545Z,94386.72
2023-03-16T10:41:41.993Z,94391.13
2023-03-16T10:44:16.860Z,94394.00
2023-03-16T10:46:50.938Z,94397.16
2023-03-16T10:49:27.317Z,94391.53
2023-03-16T10:51:57.873Z,94391.75
2023-03-16T10:54:31.772Z,94389.09
2023-03-16T10:56:59.217Z,94389.22
2023-03-16T10:59:35.208Z,94400.66
2023-03-16T11:02:32.682Z,94391.47
2023-03-16T11:05:11.115Z,94383.28
2023-03-16T11:07:39.224Z,94377.66
2023-03-16T11:10:33.324Z,94384.97
2023-03-16T11:13:22.745Z,94379.72
2023-03-16T11:16:06.528Z,94379.53
2023-03-16T11:18:39.165Z,94385.63
2023-03-16T11:21:44.028Z,94376.34
2023-03-16T11:24:30.873Z,94377.22
2023-03-16T11:27:04.534Z,94373.09
2023-03-16T11:29:52.780Z,94368.94
2023-03-16T11:32:24.744Z,94367.13
2023-03-16T11:34:52.938Z,94360.50
2023-03-16T11:37:32.691Z,94356.59
2023-03-16T11:40:26.515Z,94355.41
2023-03-16T11:43:15.928Z,94367.03
2023-03-16T11:45:58.955Z,94374.53
2023-03-16T11:48:47.854Z,94380.78
2023-03-16T11:52:08.773Z,94383.09
2023-03-16T11:54:50.518Z,94377.09
2023-03-16T11:57:33.821Z,94357.75
2023-03-16T12:00:19.389Z,94357.34
2023-03-16T12:03:10.239Z,94347.03
2023-03-16T12:06:07.797Z,94352.97
2023-03-16T12:08:59.327Z,94350.47
2023-03-16T12:11:57.745Z,94352.09
2023-03-16T12:14:38.803Z,94339.00
2023-03-16T12:17:20.681Z,94340.22
2023-03-16T12:20:05.760Z,94346.44
2023-03-16T12:22:32.975Z,94341.19
2023-03-16T12:25:00.452Z,94348.84
2023-03-16T12:27:34.226Z,94337.72
2023-03-16T12:30:20.520Z,94323.59
2023-03-16T12:33:10.852Z,94313.84
2023-03-16T12:36:00.197Z,94311.25
2023-03-16T12:38:47.040Z,94308.19
2023-03-16T12:41:33.491Z,94298.81
2023-03-16T12:44:10.858Z,94306.47
2023-03-16T12:47:28.207Z,94305.66
2023-03-16T12:50:03.182Z,94289.44
2023-03-16T12:52:49.893Z,94296.19
2023-03-16T12:55:41.374Z,94288.91
2023-03-16T12:58:09.384Z,94297.72
2023-03-16T13:00:42.692Z,94290.50
2023-03-16T13:03:21.061Z,94298.22
2023-03-16T13:05:54.872Z,94290.81
2023-03-16T13:08:23.478Z,94286.47
2023-03-16T13:11:09.620Z,94278.25
2023-03-16T13:13:59.593Z,94284.63
2023-03-16T13:16:31.058Z,94286.34
2023-03-16T13:18:58.404Z,94269.59
2023-03-16T13:21:37.774Z,94279.91
2023-03-16T13:24:28.974Z,94274.03
2023-03-16T13:27:04.435Z,94267.81
2023-03-16T13:29:33.097Z,94267.41
2023-03-16T13:32:08.752Z,94265.09
2023-03-16T13:34:53.516Z,94270.03
2023-03-16T13:37:21.889Z,94251.06
2023-03-16T13:39:58.577Z,94269.84
2023-03-16T13:42:28.768Z,94272.28
2023-03-16T13:44:59.353Z,94270.66
2023-03-16T13:47:27.726Z,94274.03
2023-03-16T13:50:00.160Z,94261.50
2023-03-16T13:52:32.313Z,94263.88
2023-03-16T13:55:01.166Z,94264.44
2023-03-16T13:57:30.732Z,94271.00
2023-03-16T14:00:20.213Z,94264.91
2023-03-16T14:02:51.694Z,94268.47
2023-03-16T14:05:24.729Z,94268.47
2023-03-16T14:07:52.788Z,94269.16
2023-03-16T14:10:21.149Z,94264.25
2023-03-16T14:12:55.648Z,94258.59
2023-03-16T14:15:26.001Z,94257.56
2023-03-16T14:17:53.682Z,94257.75
2023-03-16T14:20:25.545Z,94252.25
2023-03-16T14:22:53.677Z,94259.94
2023-03-16T14:25:27.907Z,94252.56
2023-03-16T14:28:00.944Z,94245.44
2023-03-16T14:30:30.326Z,94246.72
2023-03-16T14:33:04.242Z,94237.78
2023-03-16T14:35:43.032Z,94235.94
2023-03-16T14:38:33.642Z,94232.97
2023-03-16T14:41:12.522Z,94234.41
2023-03-16T14:43:46.411Z,94224.69
2023-03-16T14:46:18.028Z,94228.00
2023-03-16T14:48:45.785Z,94227.00
2023-03-16T14:51:16.322Z,94219.66
2023-03-16T14:53:43.390Z,94215.16
2023-03-16T14:56:13.573Z,94214.13
2023-03-16T14:58:41.313Z,94212.56
2023-03-16T15:01:16.157Z,94204.56
2023-03-16T15:03:43.546Z,94198.44
2023-03-16T15:06:10.462Z,94207.41
2023-03-16T15:08:44.412Z,94209.59
2023-03-16T15:11:11.844Z,94203.16
2023-03-16T15:13:41.875Z,94213.69
2023-03-16T15:16:13.999Z,94213.84
2023-03-16T15:18:42.063Z,94211.50
2023-03-16T15:21:15.813Z,94204.56
2023-03-16T15:23:43.716Z,94211.94
2023-03-16T15:26:15.424Z,94213.66
2023-03-16T15:28:43.013Z,94223.41
2023-03-16T15:31:14.558Z,94217.47
2023-03-16T15:33:45.400Z,94219.03
2023-03-16T15:36:15.914Z,94222.47
2023-03-16T15:38:48.285Z,94217.63
2023-03-16T15:41:15.022Z,94221.22
2023-03-16T15:43:41.773Z,94209.91
2023-03-16T15:46:10.428Z,94218.88
2023-03-16T15:48:37.152Z,94214.63
2023-03-16T15:51:27.681Z,94207.44
2023-03-16T15:54:07.015Z,94189.03
2023-03-16T15:56:51.004Z,94191.41
2023-03-16T15:59:22.154Z,94201.75
2023-03-16T16:01:49.499Z,94203.78
2023-03-16T16:04:23.499Z,94205.34
2023-03-16T16:06:54.413Z,94206.16
2023-03-16T16:09:22.090Z,94205.66
2023-03-16T16:11:50.519Z,94204.72
2023-03-16T16:14:22.183Z,94202.19
2023-03-16T16:16:48.977Z,94208.16
2023-03-16T16:19:16.770Z,94197.47
2023-03-16T16:21:43.918Z,94206.91
2023-03-16T16:24:11.237Z,94208.47
2023-03-16T16:26:50.038Z,94206.09
2023-03-16T16:29:24.094Z,94203.41
2023-03-16T16:31:54.388Z,94216.78
2023-03-16T16:34:24.635Z,94214.38
2023-03-16T16:36:52.071Z,94220.00
2023-03-16T16:39:18.813Z,94219.56
2023-03-16T16:41:46.187Z,94205.88
2023-03-16T16:44:23.579Z,94205.53
2023-03-16T16:46:52.157Z,94218.25
2023-03-16T16:49:25.118Z,94223.13
2023-03-16T16:51:53.466Z,94212.13
2023-03-16T16:54:25.605Z,94215.72
2023-03-16T16:56:54.135Z,94205.97
2023-03-16T16:59:24.869Z,94204.03
2023-03-16T17:01:54.135Z,94208.88
2023-03-16T17:04:24.775Z,94212.66
2023-03-16T17:06:55.454Z,94213.41
2023-03-16T17:09:23.366Z,94215.84
2023-03-16T17:11:51.232Z,94197.28
2023-03-16T17:14:21.802Z,94208.25
2023-03-16T17:16:50.480Z,94209.03
2023-03-16T17:19:23.341Z,94209.94
2023-03-16T17:21:55.434Z,94216.66
2023-03-16T17:24:22.839Z,94208.19
2023-03-16T17:26:54.859Z,94213.97
2023-03-16T17:29:25.937Z,94215.16
2023-03-16T17:31:52.977Z,94205.94
2023-03-16T17:34:25.404Z,94202.31
2023-03-16T17:36:52.558Z,94215.63
2023-03-16T17:39:27.843Z,94208.34
2023-03-16T17:42:02.179Z,94212.28
2023-03-16T17:44:35.269Z,94201.09
2023-03-16T17:47:02.251Z,94199.63
2023-03-16T17:49:30.735Z,94207.63
2023-03-16T17:51:57.550Z,94209.78
2023-03-16T17:54:24.271Z,94205.66
2023-03-16T17:56:53.968Z,94217.28
2023-03-16T17:59:22.939Z,94215.22
2023-03-16T18:01:50.255Z,94209.84
2023-03-16T18:04:19.170Z,94205.91
2023-03-16T18:06:49.203Z,94201.28
2023-03-16T18:09:20.520Z,94193.59
2023-03-16T18:11:49.979Z,94196.56
2023-03-16T18:14:26.911Z,94190.78
2023-03-16T18:16:54.702Z,94191.19
2023-03-16T18:19:27.238Z,94202.50
2023-03-16T18:21:53.972Z,94196.91
2023-03-16T18:24:22.379Z,94199.84
2023-03-16T18:26:49.049Z,94201.53
2023-03-16T18:29:15.732Z,94202.75
2023-03-16T18:31:44.495Z,94200.19
2023-03-16T18:34:21.268Z,94204.91
2023-03-16T18:36:47.942Z,94206.88
2023-03-16T18:39:20.339Z,94210.53
2023-03-16T18:41:47.041Z,94209.53
2023-03-16T18:44:25.900Z,94207.97
2023-03-16T18:47:01.213Z,94207.16
2023-03-16T18:49:36.699Z,94208.06
2023-03-16T18:52:03.920Z,94210.41
2023-03-16T18:54:32.786Z,94200.66
2023-03-16T18:56:59.428Z,94197.66
2023-03-16T18:59:26.804Z,94204.25
2023-03-16T19:01:53.655Z,94202.66
2023-03-16T19:04:23.909Z,94208.19
2023-03-16T19:06:54.070Z,94209.06
2023-03-16T19:09:23.220Z,94212.31
2023-03-16T19:11:51.045Z,94203.53
2023-03-16T19:14:26.709Z,94202.25
2023-03-16T19:16:54.635Z,94201.47
2023-03-16T19:19:22.815Z,94204.72
2023-03-16T19:21:54.986Z,94205.31
2023-03-16T19:24:26.550Z,94197.91
2023-03-16T19:26:54.509Z,94200.91
2023-03-16T19:29:30.887Z,94198.63
2023-03-16T19:31:58.377Z,94189.16
2023-03-16T19:34:25.461Z,94195.06
2023-03-16T19:36:52.566Z,94191.63
2023-03-16T19:39:20.704Z,94196.94
2023-03-16T19:41:54.101Z,94192.19
2023-03-16T19:44:23.700Z,94188.28
2023-03-16T19:46:50.919Z,94184.84
2023-03-16T19:49:20.176Z,94190.16
2023-03-16T19:51:48.428Z,94181.69
2023-03-16T19:54:22.292Z,94181.69
2023-03-16T19:56:50.011Z,94175.69
2023-03-16T19:59:16.887Z,94182.06
2023-03-16T20:01:43.718Z,94168.38
2023-03-16T20:04:23.254Z,94183.53
2023-03-16T20:06:50.972Z,94180.66
2023-03-16T20:09:18.301Z,94177.03
2023-03-16T20:11:46.030Z,94178.13
2023-03-16T20:14:31.436Z,94176.56
2023-03-16T20:16:58.663Z,94163.66
2023-03-16T20:19:25.489Z,94163.44
2023-03-16T20:21:52.146Z,94167.19
2023-03-16T20:24:24.039Z,94172.47
2023-03-16T20:26:52.405Z,94171.50
2023-03-16T20:29:29.314Z,94172.59
2023-03-16T20:31:56.264Z,94161.06
2023-03-16T20:34:28.718Z,94169.59
2023-03-16T20:36:56.022Z,94164.78
2023-03-16T20:39:22.907Z,94167.72
2023-03-16T20:41:50.539Z,94169.59
2023-03-16T20:44:23.758Z,94173.34
2023-03-16T20:46:50.595Z,94169.09
2023-03-16T20:49:23.747Z,94160.63
2023-03-16T20:51:50.921Z,94139.38
2023-03-16T20:54:17.813Z,94157.31
2023-03-16T20:56:44.625Z,94147.56
2023-03-16T20:59:20.235Z,94156.59
2023-03-16T21:01:47.496Z,94156.09
2023-03-16T21:04:24.141Z,94156.09
2023-03-16T21:06:50.878Z,94161.97
2023-03-16T21:09:20.000Z,94154.59
2023-03-16T21:11:47.919Z,94155.47
2023-03-16T21:14:25.170Z,94161.06
2023-03-16T21:16:53.858Z,94157.13
2023-03-16T21:19:23.730Z,94153.19
2023-03-16T21:21:50.947Z,94152.69
2023-03-16T21:24:17.633Z,94153.84
2023-03-16T21:26:45.111Z,94153.34
2023-03-16T21:29:17.222Z,94156.00
2023-03-16T21:31:44.323Z,94136.53
2023-03-16T21:34:33.874Z,94145.09
2023-03-16T21:37:00.865Z,94140.09
2023-03-16T21:39:28.335Z,94142.22
2023-03-16T21:41:55.039Z,94125.28
2023-03-16T21:44:21.900Z,94153.50
2023-03-16T21:46:48.784Z,94146.91
2023-03-16T21:49:15.986Z,94144.06
2023-03-16T21:51:44.816Z,94133.00
2023-03-16T21:54:15.771Z,94129.84
2023-03-16T21:56:43.163Z,94140.19
2023-03-16T21:59:10.775Z,94136.72
2023-03-16T22:01:50.662Z,94129.34
2023-03-16T22:04:25.273Z,94122.84
2023-03-16T22:06:52.351Z,94122.63
2023-03-16T22:09:20.830Z,94126.38
2023-03-16T22:11:47.586Z,94125.94
2023-03-16T22:14:14.280Z,94128.06
2023-03-16T22:16:41.463Z,94128.66
2023-03-16T22:19:13.515Z,94124.34
2023-03-16T22:21:42.881Z,94106.53
2023-03-16T22:24:28.125Z,94118.06
2023-03-16T22:26:55.383Z,94117.06
2023-03-16T22:29:28.673Z,94113.13
2023-03-16T22:32:07.423Z,94107.31
2023-03-16T22:34:45.242Z,94111.25
2023-03-16T22:37:25.192Z,94109.47
2023-03-16T22:39:53.056Z,94105.75
2023-03-16T22:42:19.618Z,94108.66
2023-03-16T22:44:46.322Z,94116.63
2023-03-16T22:47:28.340Z,94105.22
2023-03-16T22:49:55.430Z,94099.78
2023-03-16T22:52:28.199Z,94098.50
2023-03-16T22:54:55.471Z,94100.56
2023-03-16T22:57:22.652Z,94088.72
2023-03-16T22:59:51.182Z,94094.78
2023-03-16T23:02:20.999Z,94091.91
2023-03-16T23:04:47.739Z,94078.19
2023-03-16T23:07:15.072Z,94069.22
2023-03-16T23:09:42.062Z,94074.50
2023-03-16T23:12:19.226Z,94075.09
2023-03-16T23:14:46.235Z,94076.59
2023-03-16T23:17:18.659Z,94072.94
2023-03-16T23:19:45.656Z,94074.50
2023-03-16T23:22:12.727Z,94063.69
2023-03-16T23:24:41.127Z,94066.84
2023-03-16T23:27:18.120Z,94061.34
2023-03-16T23:29:44.923Z,94053.44
2023-03-16T23:32:11.900Z,94059.25
2023-03-16T23:34:38.859Z,94052.97
2023-03-16T23:37:05.697Z,94064.19
2023-03-16T23:39:32.596Z,94053.31
2023-03-16T23:41:59.250Z,94054.41
2023-03-16T23:44:28.500Z,94063.28
2023-03-16T23:46:55.825Z,94061.72
2023-03-16T23:49:26.254Z,94066.72
2023-03-16T23:51:56.273Z,94058.28
2023-03-16T23:54:29.856Z,94063.06
2023-03-16T23:56:57.324Z,94065.34
2023-03-16T23:59:25.186Z,94066.34
